sensor_id;sensor_type;location;lat;lon;timestamp;P1;durP1;ratioP1;P2;durP2;ratioP2
6689;SDS011;3382;51.576;8.076;2022-07-23T00:00:48;19.67;;;12.03;;
6689;SDS011;3382;51.576;8.076;2022-07-23T00:03:13;16.90;;;11.53;;
6689;SDS011;3382;51.576;8.076;2022-07-23T00:05:39;13.90;;;11.47;;
6689;SDS011;3382;51.576;8.076;2022-07-23T00:08:06;17.67;;;12.73;;
6689;SDS011;3382;51.576;8.076;2022-07-23T00:10:32;20.70;;;12.03;;
6689;SDS011;3382;51.576;8.076;2022-07-23T00:12:58;16.33;;;11.90;;
6689;SDS011;3382;51.576;8.076;2022-07-23T00:15:24;16.40;;;11.67;;
6689;SDS011;3382;51.576;8.076;2022-07-23T00:17:50;15.77;;;11.07;;
6689;SDS011;3382;51.576;8.076;2022-07-23T00:20:16;16.33;;;11.27;;
6689;SDS011;3382;51.576;8.076;2022-07-23T00:22:46;13.50;;;10.90;;
6689;SDS011;3382;51.576;8.076;2022-07-23T00:25:13;15.03;;;11.53;;
6689;SDS011;3382;51.576;8.076;2022-07-23T00:27:39;17.50;;;12.60;;
6689;SDS011;3382;51.576;8.076;2022-07-23T00:30:04;16.77;;;12.30;;
6689;SDS011;3382;51.576;8.076;2022-07-23T00:32:31;20.47;;;12.30;;
6689;SDS011;3382;51.576;8.076;2022-07-23T00:34:56;16.90;;;11.07;;
6689;SDS011;3382;51.576;8.076;2022-07-23T00:37:22;17.27;;;12.33;;
6689;SDS011;3382;51.576;8.076;2022-07-23T00:39:48;15.43;;;11.57;;
6689;SDS011;3382;51.576;8.076;2022-07-23T00:42:13;18.20;;;12.27;;
6689;SDS011;3382;51.576;8.076;2022-07-23T00:44:39;24.67;;;13.13;;
6689;SDS011;3382;51.576;8.076;2022-07-23T00:47:05;17.33;;;12.10;;
6689;SDS011;3382;51.576;8.076;2022-07-23T00:49:30;18.97;;;12.10;;
6689;SDS011;3382;51.576;8.076;2022-07-23T00:51:57;15.67;;;11.30;;
6689;SDS011;3382;51.576;8.076;2022-07-23T00:54:26;32.60;;;12.23;;
6689;SDS011;3382;51.576;8.076;2022-07-23T00:56:52;17.60;;;12.97;;
6689;SDS011;3382;51.576;8.076;2022-07-23T00:59:18;24.17;;;12.77;;
6689;SDS011;3382;51.576;8.076;2022-07-23T01:01:44;20.60;;;11.83;;
6689;SDS011;3382;51.576;8.076;2022-07-23T01:04:12;20.13;;;12.87;;
6689;SDS011;3382;51.576;8.076;2022-07-23T01:06:40;18.97;;;13.13;;
6689;SDS011;3382;51.576;8.076;2022-07-23T01:09:06;24.10;;;13.13;;
6689;SDS011;3382;51.576;8.076;2022-07-23T01:11:33;19.07;;;12.90;;
6689;SDS011;3382;51.576;8.076;2022-07-23T01:14:07;19.20;;;13.07;;
6689;SDS011;3382;51.576;8.076;2022-07-23T01:16:33;17.73;;;12.43;;
6689;SDS011;3382;51.576;8.076;2022-07-23T01:18:59;16.43;;;12.97;;
6689;SDS011;3382;51.576;8.076;2022-07-23T01:21:25;19.43;;;13.27;;
6689;SDS011;3382;51.576;8.076;2022-07-23T01:23:50;17.97;;;13.10;;
6689;SDS011;3382;51.576;8.076;2022-07-23T01:26:16;18.90;;;13.10;;
6689;SDS011;3382;51.576;8.076;2022-07-23T01:28:42;21.23;;;14.10;;
6689;SDS011;3382;51.576;8.076;2022-07-23T01:31:08;20.07;;;13.67;;
6689;SDS011;3382;51.576;8.076;2022-07-23T01:33:33;24.40;;;14.07;;
6689;SDS011;3382;51.576;8.076;2022-07-23T01:35:59;20.83;;;14.30;;
6689;SDS011;3382;51.576;8.076;2022-07-23T01:38:25;23.70;;;13.80;;
6689;SDS011;3382;51.576;8.076;2022-07-23T01:40:51;18.43;;;13.17;;
6689;SDS011;3382;51.576;8.076;2022-07-23T01:43:16;20.80;;;13.93;;
6689;SDS011;3382;51.576;8.076;2022-07-23T01:45:42;22.40;;;14.10;;
6689;SDS011;3382;51.576;8.076;2022-07-23T01:48:09;21.93;;;13.77;;
6689;SDS011;3382;51.576;8.076;2022-07-23T01:50:35;18.97;;;14.07;;
6689;SDS011;3382;51.576;8.076;2022-07-23T01:53:01;23.40;;;15.10;;
6689;SDS011;3382;51.576;8.076;2022-07-23T01:55:26;22.43;;;15.50;;
6689;SDS011;3382;51.576;8.076;2022-07-23T01:57:52;23.17;;;13.67;;
6689;SDS011;3382;51.576;8.076;2022-07-23T02:00:17;22.20;;;14.03;;
6689;SDS011;3382;51.576;8.076;2022-07-23T02:02:43;24.00;;;14.67;;
6689;SDS011;3382;51.576;8.076;2022-07-23T02:05:09;24.20;;;14.37;;
6689;SDS011;3382;51.576;8.076;2022-07-23T02:07:35;23.17;;;15.23;;
6689;SDS011;3382;51.576;8.076;2022-07-23T02:10:00;19.13;;;14.43;;
6689;SDS011;3382;51.576;8.076;2022-07-23T02:12:26;24.07;;;14.97;;
6689;SDS011;3382;51.576;8.076;2022-07-23T02:14:52;22.33;;;14.37;;
6689;SDS011;3382;51.576;8.076;2022-07-23T02:17:17;22.60;;;14.37;;
6689;SDS011;3382;51.576;8.076;2022-07-23T02:19:43;21.73;;;14.00;;
6689;SDS011;3382;51.576;8.076;2022-07-23T02:22:09;23.47;;;14.00;;
6689;SDS011;3382;51.576;8.076;2022-07-23T02:24:34;20.23;;;13.67;;
6689;SDS011;3382;51.576;8.076;2022-07-23T02:27:00;27.63;;;14.60;;
6689;SDS011;3382;51.576;8.076;2022-07-23T02:29:26;18.07;;;12.77;;
6689;SDS011;3382;51.576;8.076;2022-07-23T02:31:51;18.97;;;13.83;;
6689;SDS011;3382;51.576;8.076;2022-07-23T02:34:17;20.83;;;14.10;;
6689;SDS011;3382;51.576;8.076;2022-07-23T02:36:43;20.30;;;14.17;;
6689;SDS011;3382;51.576;8.076;2022-07-23T02:39:09;21.27;;;14.30;;
6689;SDS011;3382;51.576;8.076;2022-07-23T02:41:35;23.53;;;14.10;;
6689;SDS011;3382;51.576;8.076;2022-07-23T02:44:00;20.20;;;14.20;;
6689;SDS011;3382;51.576;8.076;2022-07-23T02:46:26;21.33;;;13.63;;
6689;SDS011;3382;51.576;8.076;2022-07-23T02:48:52;21.33;;;14.00;;
6689;SDS011;3382;51.576;8.076;2022-07-23T02:51:18;19.70;;;14.40;;
6689;SDS011;3382;51.576;8.076;2022-07-23T02:53:43;21.73;;;13.60;;
6689;SDS011;3382;51.576;8.076;2022-07-23T02:56:09;23.90;;;14.50;;
6689;SDS011;3382;51.576;8.076;2022-07-23T02:58:35;21.50;;;14.03;;
6689;SDS011;3382;51.576;8.076;2022-07-23T03:01:01;20.63;;;12.97;;
6689;SDS011;3382;51.576;8.076;2022-07-23T03:03:26;19.70;;;13.40;;
6689;SDS011;3382;51.576;8.076;2022-07-23T03:05:52;19.67;;;14.67;;
6689;SDS011;3382;51.576;8.076;2022-07-23T03:08:18;21.17;;;13.00;;
6689;SDS011;3382;51.576;8.076;2022-07-23T03:10:44;22.90;;;13.73;;
6689;SDS011;3382;51.576;8.076;2022-07-23T03:13:09;21.57;;;14.30;;
6689;SDS011;3382;51.576;8.076;2022-07-23T03:15:35;22.40;;;13.80;;
6689;SDS011;3382;51.576;8.076;2022-07-23T03:18:01;20.83;;;13.80;;
6689;SDS011;3382;51.576;8.076;2022-07-23T03:20:26;20.27;;;12.97;;
6689;SDS011;3382;51.576;8.076;2022-07-23T03:22:52;19.63;;;13.73;;
6689;SDS011;3382;51.576;8.076;2022-07-23T03:25:18;17.80;;;12.80;;
6689;SDS011;3382;51.576;8.076;2022-07-23T03:27:43;30.90;;;14.10;;
6689;SDS011;3382;51.576;8.076;2022-07-23T03:30:10;23.70;;;13.53;;
6689;SDS011;3382;51.576;8.076;2022-07-23T03:32:36;23.83;;;13.57;;
6689;SDS011;3382;51.576;8.076;2022-07-23T03:35:02;22.33;;;13.27;;
6689;SDS011;3382;51.576;8.076;2022-07-23T03:37:28;19.63;;;13.33;;
6689;SDS011;3382;51.576;8.076;2022-07-23T03:39:54;18.43;;;13.03;;
6689;SDS011;3382;51.576;8.076;2022-07-23T03:42:20;20.13;;;12.87;;
6689;SDS011;3382;51.576;8.076;2022-07-23T03:44:48;16.20;;;12.80;;
6689;SDS011;3382;51.576;8.076;2022-07-23T03:47:14;19.10;;;12.80;;
6689;SDS011;3382;51.576;8.076;2022-07-23T03:49:41;21.37;;;13.40;;
6689;SDS011;3382;51.576;8.076;2022-07-23T03:52:09;19.77;;;13.77;;
6689;SDS011;3382;51.576;8.076;2022-07-23T03:54:35;19.97;;;13.03;;
6689;SDS011;3382;51.576;8.076;2022-07-23T03:57:00;20.17;;;13.40;;
6689;SDS011;3382;51.576;8.076;2022-07-23T03:59:26;19.07;;;12.70;;
6689;SDS011;3382;51.576;8.076;2022-07-23T04:01:52;20.37;;;12.60;;
6689;SDS011;3382;51.576;8.076;2022-07-23T04:04:17;18.90;;;12.93;;
6689;SDS011;3382;51.576;8.076;2022-07-23T04:06:43;18.73;;;11.27;;
6689;SDS011;3382;51.576;8.076;2022-07-23T04:09:09;15.40;;;11.60;;
6689;SDS011;3382;51.576;8.076;2022-07-23T04:11:34;20.03;;;13.47;;
6689;SDS011;3382;51.576;8.076;2022-07-23T04:14:00;19.63;;;13.47;;
6689;SDS011;3382;51.576;8.076;2022-07-23T04:16:26;16.50;;;12.50;;
6689;SDS011;3382;51.576;8.076;2022-07-23T04:18:51;16.60;;;12.30;;
6689;SDS011;3382;51.576;8.076;2022-07-23T04:21:17;17.87;;;12.83;;
6689;SDS011;3382;51.576;8.076;2022-07-23T04:23:43;18.97;;;12.67;;
6689;SDS011;3382;51.576;8.076;2022-07-23T04:26:09;20.07;;;12.30;;
6689;SDS011;3382;51.576;8.076;2022-07-23T04:28:34;19.87;;;12.37;;
6689;SDS011;3382;51.576;8.076;2022-07-23T04:31:00;19.10;;;11.33;;
6689;SDS011;3382;51.576;8.076;2022-07-23T04:33:25;19.83;;;11.60;;
6689;SDS011;3382;51.576;8.076;2022-07-23T04:35:51;15.57;;;12.50;;
6689;SDS011;3382;51.576;8.076;2022-07-23T04:38:17;20.90;;;13.03;;
6689;SDS011;3382;51.576;8.076;2022-07-23T04:40:43;20.73;;;12.50;;
6689;SDS011;3382;51.576;8.076;2022-07-23T04:43:08;39.40;;;15.27;;
6689;SDS011;3382;51.576;8.076;2022-07-23T04:45:34;22.60;;;15.00;;
6689;SDS011;3382;51.576;8.076;2022-07-23T04:47:59;23.47;;;15.07;;
6689;SDS011;3382;51.576;8.076;2022-07-23T04:50:26;24.27;;;14.37;;
6689;SDS011;3382;51.576;8.076;2022-07-23T04:52:51;25.70;;;13.80;;
6689;SDS011;3382;51.576;8.076;2022-07-23T04:55:17;23.00;;;13.80;;
6689;SDS011;3382;51.576;8.076;2022-07-23T04:57:43;33.33;;;14.37;;
6689;SDS011;3382;51.576;8.076;2022-07-23T05:00:09;44.53;;;14.57;;
6689;SDS011;3382;51.576;8.076;2022-07-23T05:02:36;26.93;;;14.93;;
6689;SDS011;3382;51.576;8.076;2022-07-23T05:05:01;26.37;;;14.17;;
6689;SDS011;3382;51.576;8.076;2022-07-23T05:07:27;23.13;;;15.93;;
6689;SDS011;3382;51.576;8.076;2022-07-23T05:09:53;19.73;;;14.47;;
6689;SDS011;3382;51.576;8.076;2022-07-23T05:12:19;25.53;;;14.03;;
6689;SDS011;3382;51.576;8.076;2022-07-23T05:14:44;22.00;;;14.37;;
6689;SDS011;3382;51.576;8.076;2022-07-23T05:17:10;22.33;;;14.27;;
6689;SDS011;3382;51.576;8.076;2022-07-23T05:19:35;16.57;;;12.77;;
6689;SDS011;3382;51.576;8.076;2022-07-23T05:22:01;18.97;;;14.20;;
6689;SDS011;3382;51.576;8.076;2022-07-23T05:24:27;18.77;;;13.80;;
6689;SDS011;3382;51.576;8.076;2022-07-23T05:26:53;21.27;;;13.73;;
6689;SDS011;3382;51.576;8.076;2022-07-23T05:29:19;25.27;;;14.13;;
6689;SDS011;3382;51.576;8.076;2022-07-23T05:31:44;20.70;;;14.17;;
6689;SDS011;3382;51.576;8.076;2022-07-23T05:34:10;20.33;;;13.70;;
6689;SDS011;3382;51.576;8.076;2022-07-23T05:36:36;20.70;;;13.77;;
6689;SDS011;3382;51.576;8.076;2022-07-23T05:39:02;18.63;;;13.87;;
6689;SDS011;3382;51.576;8.076;2022-07-23T05:41:28;20.77;;;13.40;;
6689;SDS011;3382;51.576;8.076;2022-07-23T05:43:54;17.90;;;13.50;;
6689;SDS011;3382;51.576;8.076;2022-07-23T05:46:19;18.93;;;13.07;;
6689;SDS011;3382;51.576;8.076;2022-07-23T05:48:45;23.03;;;13.27;;
6689;SDS011;3382;51.576;8.076;2022-07-23T05:51:18;18.83;;;13.63;;
6689;SDS011;3382;51.576;8.076;2022-07-23T05:53:47;19.30;;;14.17;;
6689;SDS011;3382;51.576;8.076;2022-07-23T05:56:13;18.13;;;12.90;;
6689;SDS011;3382;51.576;8.076;2022-07-23T05:58:40;22.87;;;13.37;;
6689;SDS011;3382;51.576;8.076;2022-07-23T06:01:06;17.67;;;12.53;;
6689;SDS011;3382;51.576;8.076;2022-07-23T06:03:31;15.73;;;11.67;;
6689;SDS011;3382;51.576;8.076;2022-07-23T06:05:57;19.33;;;13.43;;
6689;SDS011;3382;51.576;8.076;2022-07-23T06:08:23;20.07;;;13.63;;
6689;SDS011;3382;51.576;8.076;2022-07-23T06:10:48;20.07;;;13.30;;
6689;SDS011;3382;51.576;8.076;2022-07-23T06:13:14;16.43;;;12.80;;
6689;SDS011;3382;51.576;8.076;2022-07-23T06:15:42;13.07;;;9.30;;
6689;SDS011;3382;51.576;8.076;2022-07-23T06:18:07;6.83;;;4.60;;
6689;SDS011;3382;51.576;8.076;2022-07-23T06:20:33;12.73;;;8.00;;
6689;SDS011;3382;51.576;8.076;2022-07-23T06:22:59;15.20;;;11.33;;
6689;SDS011;3382;51.576;8.076;2022-07-23T06:25:24;14.53;;;10.37;;
6689;SDS011;3382;51.576;8.076;2022-07-23T06:27:50;10.67;;;7.93;;
6689;SDS011;3382;51.576;8.076;2022-07-23T06:30:16;9.50;;;8.10;;
6689;SDS011;3382;51.576;8.076;2022-07-23T06:32:42;10.27;;;7.80;;
6689;SDS011;3382;51.576;8.076;2022-07-23T06:35:08;9.13;;;7.30;;
6689;SDS011;3382;51.576;8.076;2022-07-23T06:37:33;7.60;;;6.20;;
6689;SDS011;3382;51.576;8.076;2022-07-23T06:39:59;9.00;;;6.70;;
6689;SDS011;3382;51.576;8.076;2022-07-23T06:42:25;7.50;;;6.53;;
6689;SDS011;3382;51.576;8.076;2022-07-23T06:44:50;8.17;;;6.57;;
6689;SDS011;3382;51.576;8.076;2022-07-23T06:47:16;8.73;;;6.30;;
6689;SDS011;3382;51.576;8.076;2022-07-23T06:49:41;6.60;;;5.90;;
6689;SDS011;3382;51.576;8.076;2022-07-23T06:52:07;7.30;;;5.77;;
6689;SDS011;3382;51.576;8.076;2022-07-23T06:54:33;5.73;;;5.13;;
6689;SDS011;3382;51.576;8.076;2022-07-23T06:56:59;6.83;;;5.67;;
6689;SDS011;3382;51.576;8.076;2022-07-23T06:59:25;7.23;;;5.67;;
6689;SDS011;3382;51.576;8.076;2022-07-23T07:01:51;7.67;;;6.20;;
6689;SDS011;3382;51.576;8.076;2022-07-23T07:04:16;8.13;;;7.30;;
6689;SDS011;3382;51.576;8.076;2022-07-23T07:06:42;9.73;;;7.43;;
6689;SDS011;3382;51.576;8.076;2022-07-23T07:09:08;8.27;;;6.93;;
6689;SDS011;3382;51.576;8.076;2022-07-23T07:11:33;17.70;;;10.90;;
6689;SDS011;3382;51.576;8.076;2022-07-23T07:13:59;15.60;;;11.77;;
6689;SDS011;3382;51.576;8.076;2022-07-23T07:16:25;10.77;;;9.67;;
6689;SDS011;3382;51.576;8.076;2022-07-23T07:18:51;9.47;;;7.87;;
6689;SDS011;3382;51.576;8.076;2022-07-23T07:21:16;11.77;;;8.70;;
6689;SDS011;3382;51.576;8.076;2022-07-23T07:23:43;13.70;;;10.67;;
6689;SDS011;3382;51.576;8.076;2022-07-23T07:26:09;9.40;;;6.20;;
6689;SDS011;3382;51.576;8.076;2022-07-23T07:28:34;8.83;;;7.00;;
6689;SDS011;3382;51.576;8.076;2022-07-23T07:31:00;11.27;;;6.40;;
6689;SDS011;3382;51.576;8.076;2022-07-23T07:33:26;8.63;;;6.80;;
6689;SDS011;3382;51.576;8.076;2022-07-23T07:35:52;8.13;;;6.17;;
6689;SDS011;3382;51.576;8.076;2022-07-23T07:38:17;7.33;;;6.53;;
6689;SDS011;3382;51.576;8.076;2022-07-23T07:40:43;16.73;;;11.27;;
6689;SDS011;3382;51.576;8.076;2022-07-23T07:43:08;14.63;;;10.97;;
6689;SDS011;3382;51.576;8.076;2022-07-23T07:45:34;7.27;;;4.60;;
6689;SDS011;3382;51.576;8.076;2022-07-23T07:48:00;13.27;;;10.47;;
6689;SDS011;3382;51.576;8.076;2022-07-23T07:50:26;16.17;;;11.70;;
6689;SDS011;3382;51.576;8.076;2022-07-23T07:52:51;15.60;;;12.40;;
6689;SDS011;3382;51.576;8.076;2022-07-23T07:55:17;13.73;;;12.23;;
6689;SDS011;3382;51.576;8.076;2022-07-23T07:57:43;17.60;;;11.87;;
6689;SDS011;3382;51.576;8.076;2022-07-23T08:00:09;15.23;;;11.80;;
6689;SDS011;3382;51.576;8.076;2022-07-23T08:02:43;17.27;;;12.43;;
6689;SDS011;3382;51.576;8.076;2022-07-23T08:05:10;16.97;;;11.93;;
6689;SDS011;3382;51.576;8.076;2022-07-23T08:07:36;17.20;;;12.00;;
6689;SDS011;3382;51.576;8.076;2022-07-23T08:10:07;14.87;;;11.77;;
6689;SDS011;3382;51.576;8.076;2022-07-23T08:12:41;16.90;;;12.60;;
6689;SDS011;3382;51.576;8.076;2022-07-23T08:15:15;14.50;;;11.30;;
6689;SDS011;3382;51.576;8.076;2022-07-23T08:17:44;8.60;;;6.50;;
6689;SDS011;3382;51.576;8.076;2022-07-23T08:20:11;15.13;;;10.57;;
6689;SDS011;3382;51.576;8.076;2022-07-23T08:22:45;14.63;;;10.57;;
6689;SDS011;3382;51.576;8.076;2022-07-23T08:25:26;11.43;;;8.93;;
6689;SDS011;3382;51.576;8.076;2022-07-23T08:27:54;11.60;;;10.23;;
6689;SDS011;3382;51.576;8.076;2022-07-23T08:30:20;7.67;;;6.00;;
6689;SDS011;3382;51.576;8.076;2022-07-23T08:35:15;13.13;;;10.07;;
6689;SDS011;3382;51.576;8.076;2022-07-23T08:37:41;6.50;;;3.40;;
6689;SDS011;3382;51.576;8.076;2022-07-23T08:40:07;5.47;;;4.30;;
6689;SDS011;3382;51.576;8.076;2022-07-23T08:42:33;9.33;;;5.80;;
6689;SDS011;3382;51.576;8.076;2022-07-23T08:45:00;12.90;;;9.63;;
6689;SDS011;3382;51.576;8.076;2022-07-23T08:47:28;9.83;;;8.73;;
6689;SDS011;3382;51.576;8.076;2022-07-23T08:49:55;11.20;;;8.90;;
6689;SDS011;3382;51.576;8.076;2022-07-23T08:52:23;12.33;;;8.83;;
6689;SDS011;3382;51.576;8.076;2022-07-23T08:54:49;10.43;;;8.50;;
6689;SDS011;3382;51.576;8.076;2022-07-23T08:57:19;10.07;;;8.33;;
6689;SDS011;3382;51.576;8.076;2022-07-23T08:59:44;11.37;;;8.83;;
6689;SDS011;3382;51.576;8.076;2022-07-23T09:02:10;11.13;;;8.73;;
6689;SDS011;3382;51.576;8.076;2022-07-23T09:04:37;11.27;;;8.90;;
6689;SDS011;3382;51.576;8.076;2022-07-23T09:07:03;12.67;;;9.37;;
6689;SDS011;3382;51.576;8.076;2022-07-23T09:09:29;10.27;;;7.43;;
6689;SDS011;3382;51.576;8.076;2022-07-23T09:12:03;8.80;;;6.73;;
6689;SDS011;3382;51.576;8.076;2022-07-23T09:14:36;10.97;;;6.73;;
6689;SDS011;3382;51.576;8.076;2022-07-23T09:17:13;9.47;;;7.40;;
6689;SDS011;3382;51.576;8.076;2022-07-23T09:19:40;6.67;;;4.00;;
6689;SDS011;3382;51.576;8.076;2022-07-23T09:25:02;4.77;;;3.10;;
6689;SDS011;3382;51.576;8.076;2022-07-23T09:30:18;6.10;;;3.43;;
6689;SDS011;3382;51.576;8.076;2022-07-23T09:33:03;10.67;;;6.90;;
6689;SDS011;3382;51.576;8.076;2022-07-23T09:38:17;7.97;;;3.17;;
6689;SDS011;3382;51.576;8.076;2022-07-23T09:40:44;3.40;;;2.60;;
6689;SDS011;3382;51.576;8.076;2022-07-23T09:43:12;5.33;;;2.70;;
6689;SDS011;3382;51.576;8.076;2022-07-23T09:45:42;6.53;;;5.03;;
6689;SDS011;3382;51.576;8.076;2022-07-23T09:48:14;9.57;;;6.53;;
6689;SDS011;3382;51.576;8.076;2022-07-23T09:50:42;5.97;;;3.27;;
6689;SDS011;3382;51.576;8.076;2022-07-23T09:53:08;11.10;;;7.67;;
6689;SDS011;3382;51.576;8.076;2022-07-23T09:55:35;6.13;;;4.90;;
6689;SDS011;3382;51.576;8.076;2022-07-23T09:58:03;6.47;;;5.87;;
6689;SDS011;3382;51.576;8.076;2022-07-23T10:00:36;7.87;;;5.73;;
6689;SDS011;3382;51.576;8.076;2022-07-23T10:03:02;7.33;;;5.73;;
6689;SDS011;3382;51.576;8.076;2022-07-23T10:05:31;6.03;;;2.87;;
6689;SDS011;3382;51.576;8.076;2022-07-23T10:08:01;6.30;;;3.17;;
6689;SDS011;3382;51.576;8.076;2022-07-23T10:10:38;6.57;;;4.83;;
6689;SDS011;3382;51.576;8.076;2022-07-23T10:13:07;6.27;;;2.87;;
6689;SDS011;3382;51.576;8.076;2022-07-23T10:15:39;5.40;;;3.33;;
6689;SDS011;3382;51.576;8.076;2022-07-23T10:18:06;4.80;;;3.57;;
6689;SDS011;3382;51.576;8.076;2022-07-23T10:20:35;7.47;;;3.90;;
6689;SDS011;3382;51.576;8.076;2022-07-23T10:25:59;5.60;;;3.90;;
6689;SDS011;3382;51.576;8.076;2022-07-23T10:39:24;8.57;;;3.93;;
6689;SDS011;3382;51.576;8.076;2022-07-23T10:42:09;4.23;;;3.03;;
6689;SDS011;3382;51.576;8.076;2022-07-23T10:44:43;6.87;;;3.20;;
6689;SDS011;3382;51.576;8.076;2022-07-23T10:47:12;4.07;;;2.60;;
6689;SDS011;3382;51.576;8.076;2022-07-23T10:57:59;4.00;;;3.30;;
6689;SDS011;3382;51.576;8.076;2022-07-23T11:00:29;3.83;;;3.33;;
6689;SDS011;3382;51.576;8.076;2022-07-23T11:02:56;9.20;;;3.60;;
6689;SDS011;3382;51.576;8.076;2022-07-23T13:21:32;3.63;;;2.50;;
6689;SDS011;3382;51.576;8.076;2022-07-23T13:24:04;3.97;;;2.00;;
6689;SDS011;3382;51.576;8.076;2022-07-23T13:26:33;5.73;;;2.00;;
6689;SDS011;3382;51.576;8.076;2022-07-23T13:28:59;4.37;;;2.60;;
6689;SDS011;3382;51.576;8.076;2022-07-23T13:31:25;5.97;;;2.20;;
6689;SDS011;3382;51.576;8.076;2022-07-23T13:33:50;5.67;;;2.40;;
6689;SDS011;3382;51.576;8.076;2022-07-23T13:36:16;3.17;;;2.33;;
6689;SDS011;3382;51.576;8.076;2022-07-23T13:38:42;3.00;;;2.10;;
6689;SDS011;3382;51.576;8.076;2022-07-23T13:41:07;4.07;;;2.50;;
6689;SDS011;3382;51.576;8.076;2022-07-23T13:43:33;3.17;;;2.13;;
6689;SDS011;3382;51.576;8.076;2022-07-23T13:45:59;4.70;;;1.93;;
6689;SDS011;3382;51.576;8.076;2022-07-23T13:48:28;8.63;;;2.73;;
6689;SDS011;3382;51.576;8.076;2022-07-23T13:50:54;6.90;;;2.47;;
6689;SDS011;3382;51.576;8.076;2022-07-23T13:53:21;5.73;;;2.40;;
6689;SDS011;3382;51.576;8.076;2022-07-23T13:55:49;3.77;;;2.47;;
6689;SDS011;3382;51.576;8.076;2022-07-23T13:58:16;6.60;;;2.40;;
6689;SDS011;3382;51.576;8.076;2022-07-23T14:00:44;2.17;;;1.77;;
6689;SDS011;3382;51.576;8.076;2022-07-23T14:03:12;2.60;;;1.70;;
6689;SDS011;3382;51.576;8.076;2022-07-23T14:05:37;1.97;;;1.63;;
6689;SDS011;3382;51.576;8.076;2022-07-23T14:08:03;2.07;;;1.80;;
6689;SDS011;3382;51.576;8.076;2022-07-23T14:10:29;2.10;;;1.67;;
6689;SDS011;3382;51.576;8.076;2022-07-23T14:12:58;1.97;;;1.67;;
6689;SDS011;3382;51.576;8.076;2022-07-23T14:15:27;3.53;;;1.73;;
6689;SDS011;3382;51.576;8.076;2022-07-23T14:17:54;2.47;;;1.70;;
6689;SDS011;3382;51.576;8.076;2022-07-23T14:20:20;2.90;;;1.70;;
6689;SDS011;3382;51.576;8.076;2022-07-23T14:22:55;2.40;;;1.60;;
6689;SDS011;3382;51.576;8.076;2022-07-23T14:25:26;6.07;;;3.93;;
6689;SDS011;3382;51.576;8.076;2022-07-23T14:27:54;7.40;;;2.80;;
6689;SDS011;3382;51.576;8.076;2022-07-23T14:30:20;2.27;;;1.60;;
6689;SDS011;3382;51.576;8.076;2022-07-23T14:32:48;1.60;;;1.50;;
6689;SDS011;3382;51.576;8.076;2022-07-23T14:35:13;4.17;;;1.83;;
6689;SDS011;3382;51.576;8.076;2022-07-23T14:37:39;3.40;;;1.90;;
6689;SDS011;3382;51.576;8.076;2022-07-23T14:40:06;1.60;;;1.50;;
6689;SDS011;3382;51.576;8.076;2022-07-23T14:42:32;2.20;;;1.70;;
6689;SDS011;3382;51.576;8.076;2022-07-23T14:44:57;2.77;;;1.80;;
6689;SDS011;3382;51.576;8.076;2022-07-23T14:47:23;2.93;;;2.00;;
6689;SDS011;3382;51.576;8.076;2022-07-23T14:49:49;5.40;;;2.10;;
6689;SDS011;3382;51.576;8.076;2022-07-23T14:52:14;2.50;;;1.80;;
6689;SDS011;3382;51.576;8.076;2022-07-23T14:54:40;3.40;;;2.27;;
6689;SDS011;3382;51.576;8.076;2022-07-23T14:57:08;3.40;;;1.73;;
6689;SDS011;3382;51.576;8.076;2022-07-23T14:59:34;7.77;;;1.93;;
6689;SDS011;3382;51.576;8.076;2022-07-23T15:02:00;2.80;;;1.50;;
6689;SDS011;3382;51.576;8.076;2022-07-23T15:04:25;2.10;;;1.77;;
6689;SDS011;3382;51.576;8.076;2022-07-23T15:06:51;2.80;;;1.70;;
6689;SDS011;3382;51.576;8.076;2022-07-23T15:09:17;3.33;;;1.83;;
6689;SDS011;3382;51.576;8.076;2022-07-23T15:11:43;1.80;;;1.70;;
6689;SDS011;3382;51.576;8.076;2022-07-23T15:14:09;3.83;;;2.00;;
6689;SDS011;3382;51.576;8.076;2022-07-23T15:16:35;3.20;;;1.70;;
6689;SDS011;3382;51.576;8.076;2022-07-23T15:19:01;6.33;;;2.03;;
6689;SDS011;3382;51.576;8.076;2022-07-23T15:21:28;4.03;;;2.20;;
6689;SDS011;3382;51.576;8.076;2022-07-23T15:23:55;2.27;;;1.80;;
6689;SDS011;3382;51.576;8.076;2022-07-23T15:26:23;1.70;;;1.60;;
6689;SDS011;3382;51.576;8.076;2022-07-23T15:28:52;2.50;;;1.70;;
6689;SDS011;3382;51.576;8.076;2022-07-23T15:31:18;1.60;;;1.50;;
6689;SDS011;3382;51.576;8.076;2022-07-23T15:33:44;2.63;;;1.93;;
6689;SDS011;3382;51.576;8.076;2022-07-23T15:36:09;2.50;;;1.93;;
6689;SDS011;3382;51.576;8.076;2022-07-23T15:38:35;3.27;;;1.60;;
6689;SDS011;3382;51.576;8.076;2022-07-23T15:41:01;5.63;;;2.03;;
6689;SDS011;3382;51.576;8.076;2022-07-23T15:43:27;1.83;;;1.63;;
6689;SDS011;3382;51.576;8.076;2022-07-23T15:45:53;2.20;;;1.60;;
6689;SDS011;3382;51.576;8.076;2022-07-23T15:48:25;2.17;;;1.70;;
6689;SDS011;3382;51.576;8.076;2022-07-23T15:50:50;2.30;;;1.60;;
6689;SDS011;3382;51.576;8.076;2022-07-23T15:53:16;2.43;;;1.63;;
6689;SDS011;3382;51.576;8.076;2022-07-23T15:55:42;3.57;;;1.90;;
6689;SDS011;3382;51.576;8.076;2022-07-23T15:58:11;4.07;;;1.73;;
6689;SDS011;3382;51.576;8.076;2022-07-23T16:00:38;5.63;;;2.00;;
6689;SDS011;3382;51.576;8.076;2022-07-23T16:03:03;2.20;;;1.60;;
6689;SDS011;3382;51.576;8.076;2022-07-23T16:05:29;2.93;;;1.90;;
6689;SDS011;3382;51.576;8.076;2022-07-23T16:07:55;4.97;;;1.63;;
6689;SDS011;3382;51.576;8.076;2022-07-23T16:10:21;1.70;;;1.60;;
6689;SDS011;3382;51.576;8.076;2022-07-23T16:12:47;4.63;;;1.70;;
6689;SDS011;3382;51.576;8.076;2022-07-23T16:15:13;3.73;;;2.00;;
6689;SDS011;3382;51.576;8.076;2022-07-23T16:17:39;2.23;;;1.70;;
6689;SDS011;3382;51.576;8.076;2022-07-23T16:20:04;4.30;;;2.10;;
6689;SDS011;3382;51.576;8.076;2022-07-23T16:22:34;5.97;;;2.80;;
6689;SDS011;3382;51.576;8.076;2022-07-23T16:25:00;7.20;;;2.77;;
6689;SDS011;3382;51.576;8.076;2022-07-23T16:27:26;3.30;;;1.90;;
6689;SDS011;3382;51.576;8.076;2022-07-23T16:29:52;1.70;;;1.60;;
6689;SDS011;3382;51.576;8.076;2022-07-23T16:32:18;3.53;;;1.70;;
6689;SDS011;3382;51.576;8.076;2022-07-23T16:34:43;3.50;;;1.70;;
6689;SDS011;3382;51.576;8.076;2022-07-23T16:37:15;2.63;;;1.87;;
6689;SDS011;3382;51.576;8.076;2022-07-23T16:39:40;2.43;;;2.10;;
6689;SDS011;3382;51.576;8.076;2022-07-23T16:42:06;2.20;;;2.00;;
6689;SDS011;3382;51.576;8.076;2022-07-23T16:44:33;2.53;;;2.00;;
6689;SDS011;3382;51.576;8.076;2022-07-23T16:46:58;2.43;;;2.23;;
6689;SDS011;3382;51.576;8.076;2022-07-23T16:49:24;2.10;;;1.80;;
6689;SDS011;3382;51.576;8.076;2022-07-23T16:51:50;2.70;;;2.10;;
6689;SDS011;3382;51.576;8.076;2022-07-23T16:54:17;2.10;;;1.90;;
6689;SDS011;3382;51.576;8.076;2022-07-23T16:56:42;2.77;;;1.83;;
6689;SDS011;3382;51.576;8.076;2022-07-23T16:59:09;2.10;;;1.90;;
6689;SDS011;3382;51.576;8.076;2022-07-23T17:01:34;3.50;;;2.40;;
6689;SDS011;3382;51.576;8.076;2022-07-23T17:04:00;3.30;;;2.10;;
6689;SDS011;3382;51.576;8.076;2022-07-23T17:06:26;2.63;;;1.80;;
6689;SDS011;3382;51.576;8.076;2022-07-23T17:08:52;3.27;;;1.80;;
6689;SDS011;3382;51.576;8.076;2022-07-23T17:11:17;2.80;;;2.20;;
6689;SDS011;3382;51.576;8.076;2022-07-23T17:13:43;2.50;;;1.60;;
6689;SDS011;3382;51.576;8.076;2022-07-23T17:16:09;5.77;;;1.70;;
6689;SDS011;3382;51.576;8.076;2022-07-23T17:18:34;5.23;;;1.70;;
6689;SDS011;3382;51.576;8.076;2022-07-23T17:21:00;2.43;;;1.77;;
6689;SDS011;3382;51.576;8.076;2022-07-23T17:23:28;4.20;;;1.50;;
6689;SDS011;3382;51.576;8.076;2022-07-23T17:25:54;2.37;;;1.80;;
6689;SDS011;3382;51.576;8.076;2022-07-23T17:28:20;3.30;;;1.90;;
6689;SDS011;3382;51.576;8.076;2022-07-23T17:30:45;2.00;;;1.53;;
6689;SDS011;3382;51.576;8.076;2022-07-23T17:33:11;2.43;;;1.60;;
6689;SDS011;3382;51.576;8.076;2022-07-23T17:35:37;2.10;;;1.50;;
6689;SDS011;3382;51.576;8.076;2022-07-23T17:38:04;3.40;;;1.60;;
6689;SDS011;3382;51.576;8.076;2022-07-23T17:40:30;3.13;;;2.00;;
6689;SDS011;3382;51.576;8.076;2022-07-23T17:42:55;4.20;;;2.10;;
6689;SDS011;3382;51.576;8.076;2022-07-23T17:45:22;2.40;;;1.70;;